sensor_id;sensor_type;location;lat;lon;timestamp;temperature;humidity
39045;DHT22;52192;52.002;5.956;2022-10-16T00:02:02;13.60;84.10
39045;DHT22;52192;52.002;5.956;2022-10-16T00:04:27;13.50;84.00
39045;DHT22;52192;52.002;5.956;2022-10-16T00:06:53;13.50;83.90
39045;DHT22;52192;52.002;5.956;2022-10-16T00:09:19;13.50;83.90
39045;DHT22;52192;52.002;5.956;2022-10-16T00:11:44;13.40;83.90
39045;DHT22;52192;52.002;5.956;2022-10-16T00:14:13;13.40;84.00
39045;DHT22;52192;52.002;5.956;2022-10-16T00:16:39;13.30;83.90
39045;DHT22;52192;52.002;5.956;2022-10-16T00:19:05;13.30;84.00
39045;DHT22;52192;52.002;5.956;2022-10-16T00:21:31;13.30;84.00
39045;DHT22;52192;52.002;5.956;2022-10-16T00:24:00;13.30;84.10
39045;DHT22;52192;52.002;5.956;2022-10-16T00:26:28;13.30;84.20
39045;DHT22;52192;52.002;5.956;2022-10-16T00:28:54;13.30;84.30
39045;DHT22;52192;52.002;5.956;2022-10-16T00:31:20;13.40;84.30
39045;DHT22;52192;52.002;5.956;2022-10-16T00:33:47;13.50;84.30
39045;DHT22;52192;52.002;5.956;2022-10-16T00:36:15;13.50;84.50
39045;DHT22;52192;52.002;5.956;2022-10-16T00:38:41;13.60;84.40
39045;DHT22;52192;52.002;5.956;2022-10-16T00:41:09;13.60;84.20
39045;DHT22;52192;52.002;5.956;2022-10-16T00:43:40;13.70;84.10
39045;DHT22;52192;52.002;5.956;2022-10-16T00:46:18;13.70;84.10
39045;DHT22;52192;52.002;5.956;2022-10-16T00:48:55;13.70;84.20
39045;DHT22;52192;52.002;5.956;2022-10-16T00:51:25;13.70;84.30
39045;DHT22;52192;52.002;5.956;2022-10-16T00:53:54;13.70;84.50
39045;DHT22;52192;52.002;5.956;2022-10-16T00:56:20;13.80;84.50
39045;DHT22;52192;52.002;5.956;2022-10-16T00:58:46;13.80;84.50
39045;DHT22;52192;52.002;5.956;2022-10-16T01:01:12;13.80;84.50
39045;DHT22;52192;52.002;5.956;2022-10-16T01:03:38;13.80;84.50
39045;DHT22;52192;52.002;5.956;2022-10-16T01:06:21;13.80;84.50
39045;DHT22;52192;52.002;5.956;2022-10-16T01:09:17;13.80;85.10
39045;DHT22;52192;52.002;5.956;2022-10-16T01:11:52;13.70;85.20
39045;DHT22;52192;52.002;5.956;2022-10-16T01:14:22;13.70;84.80
39045;DHT22;52192;52.002;5.956;2022-10-16T01:22:03;13.70;84.70
39045;DHT22;52192;52.002;5.956;2022-10-16T01:24:41;13.70;84.80
39045;DHT22;52192;52.002;5.956;2022-10-16T01:27:28;13.70;84.80
39045;DHT22;52192;52.002;5.956;2022-10-16T01:32:40;13.70;84.80
39045;DHT22;52192;52.002;5.956;2022-10-16T01:35:18;13.70;84.70
39045;DHT22;52192;52.002;5.956;2022-10-16T01:37:55;13.70;84.80
39045;DHT22;52192;52.002;5.956;2022-10-16T01:40:26;13.70;84.90
39045;DHT22;52192;52.002;5.956;2022-10-16T01:43:19;13.70;84.90
39045;DHT22;52192;52.002;5.956;2022-10-16T01:45:46;13.80;84.90
39045;DHT22;52192;52.002;5.956;2022-10-16T01:48:13;13.80;85.00
39045;DHT22;52192;52.002;5.956;2022-10-16T01:50:42;13.80;85.00
39045;DHT22;52192;52.002;5.956;2022-10-16T01:53:12;13.80;84.90
39045;DHT22;52192;52.002;5.956;2022-10-16T01:55:40;13.80;84.90
39045;DHT22;52192;52.002;5.956;2022-10-16T01:58:11;13.80;84.90
39045;DHT22;52192;52.002;5.956;2022-10-16T02:00:42;13.80;84.80
39045;DHT22;52192;52.002;5.956;2022-10-16T02:03:11;13.80;84.90
39045;DHT22;52192;52.002;5.956;2022-10-16T02:08:08;13.90;84.80
39045;DHT22;52192;52.002;5.956;2022-10-16T02:10:36;13.90;84.80
39045;DHT22;52192;52.002;5.956;2022-10-16T02:13:13;13.90;84.80
39045;DHT22;52192;52.002;5.956;2022-10-16T02:15:41;13.90;84.90
39045;DHT22;52192;52.002;5.956;2022-10-16T02:18:07;13.90;84.80
39045;DHT22;52192;52.002;5.956;2022-10-16T02:20:44;13.90;85.00
39045;DHT22;52192;52.002;5.956;2022-10-16T02:23:17;13.90;85.00
39045;DHT22;52192;52.002;5.956;2022-10-16T02:25:44;13.90;85.00
39045;DHT22;52192;52.002;5.956;2022-10-16T02:28:26;14.00;85.00
39045;DHT22;52192;52.002;5.956;2022-10-16T02:30:56;14.00;84.80
39045;DHT22;52192;52.002;5.956;2022-10-16T02:33:23;14.00;85.00
39045;DHT22;52192;52.002;5.956;2022-10-16T02:35:51;13.90;85.00
39045;DHT22;52192;52.002;5.956;2022-10-16T02:38:18;14.00;85.00
39045;DHT22;52192;52.002;5.956;2022-10-16T02:40:44;14.00;85.00
39045;DHT22;52192;52.002;5.956;2022-10-16T02:43:10;14.00;85.10
39045;DHT22;52192;52.002;5.956;2022-10-16T02:45:36;14.00;85.10
39045;DHT22;52192;52.002;5.956;2022-10-16T02:48:02;14.00;85.10
39045;DHT22;52192;52.002;5.956;2022-10-16T02:50:28;14.00;85.00
39045;DHT22;52192;52.002;5.956;2022-10-16T02:52:54;14.00;85.00
39045;DHT22;52192;52.002;5.956;2022-10-16T02:55:19;14.10;85.10
39045;DHT22;52192;52.002;5.956;2022-10-16T02:57:45;14.00;85.10
39045;DHT22;52192;52.002;5.956;2022-10-16T03:00:14;14.00;85.10
39045;DHT22;52192;52.002;5.956;2022-10-16T03:02:40;13.90;85.00
39045;DHT22;52192;52.002;5.956;2022-10-16T03:05:06;13.90;85.10
39045;DHT22;52192;52.002;5.956;2022-10-16T03:07:32;13.90;85.20
39045;DHT22;52192;52.002;5.956;2022-10-16T03:09:57;13.80;85.20
39045;DHT22;52192;52.002;5.956;2022-10-16T03:12:26;13.70;85.30
39045;DHT22;52192;52.002;5.956;2022-10-16T03:14:52;13.80;85.40
39045;DHT22;52192;52.002;5.956;2022-10-16T03:17:17;13.80;85.50
39045;DHT22;52192;52.002;5.956;2022-10-16T03:19:43;13.80;85.60
39045;DHT22;52192;52.002;5.956;2022-10-16T03:22:09;13.80;85.60
39045;DHT22;52192;52.002;5.956;2022-10-16T03:24:34;13.80;85.70
39045;DHT22;52192;52.002;5.956;2022-10-16T03:27:00;13.80;85.60
39045;DHT22;52192;52.002;5.956;2022-10-16T03:29:26;13.80;85.60
39045;DHT22;52192;52.002;5.956;2022-10-16T03:31:53;13.80;85.70
39045;DHT22;52192;52.002;5.956;2022-10-16T03:34:18;13.80;85.70
39045;DHT22;52192;52.002;5.956;2022-10-16T03:36:44;13.80;85.70
39045;DHT22;52192;52.002;5.956;2022-10-16T03:39:09;13.80;85.70
39045;DHT22;52192;52.002;5.956;2022-10-16T03:41:35;13.90;85.70
39045;DHT22;52192;52.002;5.956;2022-10-16T03:44:01;13.90;85.70
39045;DHT22;52192;52.002;5.956;2022-10-16T03:46:26;13.90;85.70
39045;DHT22;52192;52.002;5.956;2022-10-16T03:48:52;13.80;85.60
39045;DHT22;52192;52.002;5.956;2022-10-16T03:51:18;13.90;85.70
39045;DHT22;52192;52.002;5.956;2022-10-16T03:53:43;13.80;85.70
39045;DHT22;52192;52.002;5.956;2022-10-16T03:56:09;13.90;85.80
39045;DHT22;52192;52.002;5.956;2022-10-16T03:58:35;13.90;85.90
39045;DHT22;52192;52.002;5.956;2022-10-16T04:01:00;13.90;85.70
39045;DHT22;52192;52.002;5.956;2022-10-16T04:03:26;13.90;85.70
39045;DHT22;52192;52.002;5.956;2022-10-16T04:05:52;13.90;85.70
39045;DHT22;52192;52.002;5.956;2022-10-16T04:08:17;13.90;85.90
39045;DHT22;52192;52.002;5.956;2022-10-16T04:10:44;13.90;85.80
39045;DHT22;52192;52.002;5.956;2022-10-16T04:13:10;13.90;85.80
39045;DHT22;52192;52.002;5.956;2022-10-16T04:15:36;13.90;85.70
39045;DHT22;52192;52.002;5.956;2022-10-16T04:18:01;13.90;85.70
39045;DHT22;52192;52.002;5.956;2022-10-16T04:20:27;13.90;85.70
39045;DHT22;52192;52.002;5.956;2022-10-16T04:22:53;13.90;85.70
39045;DHT22;52192;52.002;5.956;2022-10-16T04:25:18;13.90;85.60
39045;DHT22;52192;52.002;5.956;2022-10-16T04:27:44;14.00;85.60
39045;DHT22;52192;52.002;5.956;2022-10-16T04:30:10;14.00;85.50
39045;DHT22;52192;52.002;5.956;2022-10-16T04:32:39;14.00;85.50
39045;DHT22;52192;52.002;5.956;2022-10-16T04:35:09;14.00;85.60
39045;DHT22;52192;52.002;5.956;2022-10-16T04:37:35;14.00;85.60
39045;DHT22;52192;52.002;5.956;2022-10-16T04:40:00;14.00;85.70
39045;DHT22;52192;52.002;5.956;2022-10-16T04:42:26;14.00;85.70
39045;DHT22;52192;52.002;5.956;2022-10-16T04:44:52;14.00;85.70
39045;DHT22;52192;52.002;5.956;2022-10-16T04:47:17;14.00;85.70
39045;DHT22;52192;52.002;5.956;2022-10-16T04:49:43;14.00;85.70
39045;DHT22;52192;52.002;5.956;2022-10-16T04:52:09;14.00;85.80
39045;DHT22;52192;52.002;5.956;2022-10-16T04:54:35;14.00;85.70
39045;DHT22;52192;52.002;5.956;2022-10-16T04:57:00;14.00;85.80
39045;DHT22;52192;52.002;5.956;2022-10-16T04:59:26;14.00;85.80
39045;DHT22;52192;52.002;5.956;2022-10-16T05:01:51;14.00;85.90
39045;DHT22;52192;52.002;5.956;2022-10-16T05:04:17;14.00;86.20
39045;DHT22;52192;52.002;5.956;2022-10-16T05:06:43;14.00;86.10
39045;DHT22;52192;52.002;5.956;2022-10-16T05:09:08;14.10;86.10
39045;DHT22;52192;52.002;5.956;2022-10-16T05:11:34;14.10;86.00
39045;DHT22;52192;52.002;5.956;2022-10-16T05:14:00;14.10;86.00
39045;DHT22;52192;52.002;5.956;2022-10-16T05:16:26;14.10;85.90
39045;DHT22;52192;52.002;5.956;2022-10-16T05:18:52;14.10;85.90
39045;DHT22;52192;52.002;5.956;2022-10-16T05:21:18;14.00;86.00
39045;DHT22;52192;52.002;5.956;2022-10-16T05:23:43;14.00;86.20
39045;DHT22;52192;52.002;5.956;2022-10-16T05:26:09;14.00;86.20
39045;DHT22;52192;52.002;5.956;2022-10-16T05:28:35;14.00;86.20
39045;DHT22;52192;52.002;5.956;2022-10-16T05:31:08;14.00;86.20
39045;DHT22;52192;52.002;5.956;2022-10-16T05:33:34;13.90;86.10
39045;DHT22;52192;52.002;5.956;2022-10-16T05:36:08;13.90;86.20
39045;DHT22;52192;52.002;5.956;2022-10-16T05:38:35;14.00;86.30
39045;DHT22;52192;52.002;5.956;2022-10-16T05:41:01;13.90;86.20
39045;DHT22;52192;52.002;5.956;2022-10-16T05:43:28;13.90;86.20
39045;DHT22;52192;52.002;5.956;2022-10-16T05:45:59;13.80;86.20
39045;DHT22;52192;52.002;5.956;2022-10-16T05:48:25;13.80;86.30
39045;DHT22;52192;52.002;5.956;2022-10-16T05:50:59;13.80;86.40
39045;DHT22;52192;52.002;5.956;2022-10-16T05:53:25;13.80;86.40
39045;DHT22;52192;52.002;5.956;2022-10-16T05:55:52;13.80;86.50
39045;DHT22;52192;52.002;5.956;2022-10-16T05:58:18;13.80;86.40
39045;DHT22;52192;52.002;5.956;2022-10-16T06:00:44;13.80;86.40
39045;DHT22;52192;52.002;5.956;2022-10-16T06:03:09;13.80;86.40
39045;DHT22;52192;52.002;5.956;2022-10-16T06:05:35;13.80;86.40
39045;DHT22;52192;52.002;5.956;2022-10-16T06:08:00;13.80;86.40
39045;DHT22;52192;52.002;5.956;2022-10-16T06:10:26;13.80;86.50
39045;DHT22;52192;52.002;5.956;2022-10-16T06:12:52;13.80;86.50
39045;DHT22;52192;52.002;5.956;2022-10-16T06:15:17;13.80;86.50
39045;DHT22;52192;52.002;5.956;2022-10-16T06:17:43;13.80;86.50
39045;DHT22;52192;52.002;5.956;2022-10-16T06:20:09;13.80;86.50
39045;DHT22;52192;52.002;5.956;2022-10-16T06:22:34;13.80;86.50
39045;DHT22;52192;52.002;5.956;2022-10-16T06:25:00;13.80;86.50
39045;DHT22;52192;52.002;5.956;2022-10-16T06:27:26;13.80;86.50
39045;DHT22;52192;52.002;5.956;2022-10-16T06:29:51;13.80;86.40
39045;DHT22;52192;52.002;5.956;2022-10-16T06:32:17;13.80;86.50
39045;DHT22;52192;52.002;5.956;2022-10-16T06:34:43;13.90;86.50
39045;DHT22;52192;52.002;5.956;2022-10-16T06:37:09;13.90;86.40
39045;DHT22;52192;52.002;5.956;2022-10-16T06:39:35;13.90;86.50
39045;DHT22;52192;52.002;5.956;2022-10-16T06:42:00;14.00;86.50
39045;DHT22;52192;52.002;5.956;2022-10-16T06:44:26;14.00;86.40
39045;DHT22;52192;52.002;5.956;2022-10-16T06:46:52;14.00;86.40
39045;DHT22;52192;52.002;5.956;2022-10-16T06:49:17;14.00;86.50
39045;DHT22;52192;52.002;5.956;2022-10-16T06:51:48;14.10;86.60
39045;DHT22;52192;52.002;5.956;2022-10-16T06:54:15;14.10;86.60
39045;DHT22;52192;52.002;5.956;2022-10-16T06:56:41;14.10;86.60
39045;DHT22;52192;52.002;5.956;2022-10-16T06:59:06;14.20;86.50
39045;DHT22;52192;52.002;5.956;2022-10-16T07:01:32;14.20;86.40
39045;DHT22;52192;52.002;5.956;2022-10-16T07:03:59;14.30;86.30
39045;DHT22;52192;52.002;5.956;2022-10-16T07:06:26;14.30;86.30
39045;DHT22;52192;52.002;5.956;2022-10-16T07:08:52;14.30;86.40
39045;DHT22;52192;52.002;5.956;2022-10-16T07:11:20;14.40;86.40
39045;DHT22;52192;52.002;5.956;2022-10-16T07:13:47;14.40;86.20
39045;DHT22;52192;52.002;5.956;2022-10-16T07:16:18;14.40;86.20
39045;DHT22;52192;52.002;5.956;2022-10-16T07:18:45;14.40;86.20
39045;DHT22;52192;52.002;5.956;2022-10-16T07:21:17;14.40;86.30
39045;DHT22;52192;52.002;5.956;2022-10-16T07:23:43;14.50;86.40
39045;DHT22;52192;52.002;5.956;2022-10-16T07:26:10;14.50;86.30
39045;DHT22;52192;52.002;5.956;2022-10-16T07:28:36;14.60;86.20
39045;DHT22;52192;52.002;5.956;2022-10-16T07:31:07;14.70;86.00
39045;DHT22;52192;52.002;5.956;2022-10-16T07:33:34;14.70;85.90
39045;DHT22;52192;52.002;5.956;2022-10-16T07:36:00;14.70;85.90
39045;DHT22;52192;52.002;5.956;2022-10-16T07:38:26;14.70;85.80
39045;DHT22;52192;52.002;5.956;2022-10-16T07:40:59;14.80;85.80
39045;DHT22;52192;52.002;5.956;2022-10-16T07:43:26;14.90;85.80
39045;DHT22;52192;52.002;5.956;2022-10-16T07:45:53;14.90;85.80
39045;DHT22;52192;52.002;5.956;2022-10-16T07:48:20;15.00;85.90
39045;DHT22;52192;52.002;5.956;2022-10-16T07:50:46;15.00;85.80
39045;DHT22;52192;52.002;5.956;2022-10-16T07:53:12;15.10;85.70
39045;DHT22;52192;52.002;5.956;2022-10-16T07:55:38;15.10;85.50
39045;DHT22;52192;52.002;5.956;2022-10-16T07:58:04;15.20;85.50
39045;DHT22;52192;52.002;5.956;2022-10-16T08:00:31;15.30;85.40
39045;DHT22;52192;52.002;5.956;2022-10-16T08:03:00;15.30;85.10
39045;DHT22;52192;52.002;5.956;2022-10-16T08:05:29;15.40;85.10
39045;DHT22;52192;52.002;5.956;2022-10-16T08:07:56;15.40;85.00
39045;DHT22;52192;52.002;5.956;2022-10-16T08:10:23;15.40;85.10
39045;DHT22;52192;52.002;5.956;2022-10-16T08:12:50;15.50;84.90
39045;DHT22;52192;52.002;5.956;2022-10-16T08:15:17;15.60;84.90
39045;DHT22;52192;52.002;5.956;2022-10-16T08:17:43;15.70;84.70
39045;DHT22;52192;52.002;5.956;2022-10-16T08:20:09;15.80;84.30
39045;DHT22;52192;52.002;5.956;2022-10-16T08:22:35;15.90;84.00
39045;DHT22;52192;52.002;5.956;2022-10-16T08:25:00;16.00;83.90
39045;DHT22;52192;52.002;5.956;2022-10-16T08:27:34;16.10;83.50
39045;DHT22;52192;52.002;5.956;2022-10-16T08:29:59;16.10;83.30
39045;DHT22;52192;52.002;5.956;2022-10-16T08:32:25;16.20;83.40
39045;DHT22;52192;52.002;5.956;2022-10-16T08:34:51;16.30;83.20
39045;DHT22;52192;52.002;5.956;2022-10-16T08:37:16;16.30;83.00
39045;DHT22;52192;52.002;5.956;2022-10-16T08:39:42;16.40;83.00
39045;DHT22;52192;52.002;5.956;2022-10-16T08:42:15;16.40;83.00
39045;DHT22;52192;52.002;5.956;2022-10-16T08:45:08;16.40;82.80
39045;DHT22;52192;52.002;5.956;2022-10-16T08:50:37;16.40;82.60
39045;DHT22;52192;52.002;5.956;2022-10-16T08:53:04;16.40;82.30
39045;DHT22;52192;52.002;5.956;2022-10-16T08:55:37;16.40;82.20
39045;DHT22;52192;52.002;5.956;2022-10-16T08:58:18;16.50;82.20
39045;DHT22;52192;52.002;5.956;2022-10-16T09:00:47;16.70;81.80
39045;DHT22;52192;52.002;5.956;2022-10-16T09:03:23;16.80;81.50
39045;DHT22;52192;52.002;5.956;2022-10-16T09:06:37;16.80;81.00
39045;DHT22;52192;52.002;5.956;2022-10-16T09:11:25;17.00;80.70
39045;DHT22;52192;52.002;5.956;2022-10-16T09:14:07;17.10;80.50
39045;DHT22;52192;52.002;5.956;2022-10-16T09:16:41;17.20;79.80
39045;DHT22;52192;52.002;5.956;2022-10-16T09:19:20;17.20;78.90
39045;DHT22;52192;52.002;5.956;2022-10-16T09:21:52;17.20;78.90
39045;DHT22;52192;52.002;5.956;2022-10-16T09:24:21;17.30;79.20
39045;DHT22;52192;52.002;5.956;2022-10-16T09:26:47;17.40;78.60
39045;DHT22;52192;52.002;5.956;2022-10-16T09:29:17;17.40;78.90
39045;DHT22;52192;52.002;5.956;2022-10-16T09:31:45;17.60;78.60
39045;DHT22;52192;52.002;5.956;2022-10-16T09:34:20;17.70;77.10
39045;DHT22;52192;52.002;5.956;2022-10-16T09:36:48;17.70;77.60
39045;DHT22;52192;52.002;5.956;2022-10-16T09:39:13;17.80;77.90
39045;DHT22;52192;52.002;5.956;2022-10-16T09:41:43;17.90;77.20
39045;DHT22;52192;52.002;5.956;2022-10-16T09:44:29;17.90;76.40
39045;DHT22;52192;52.002;5.956;2022-10-16T09:47:12;18.00;76.30
39045;DHT22;52192;52.002;5.956;2022-10-16T09:49:38;18.00;76.20
39045;DHT22;52192;52.002;5.956;2022-10-16T09:52:06;18.00;75.80
39045;DHT22;52192;52.002;5.956;2022-10-16T09:54:36;18.00;75.80
39045;DHT22;52192;52.002;5.956;2022-10-16T09:57:12;18.00;76.00
39045;DHT22;52192;52.002;5.956;2022-10-16T09:59:50;18.10;76.20
39045;DHT22;52192;52.002;5.956;2022-10-16T10:02:28;18.30;76.30
39045;DHT22;52192;52.002;5.956;2022-10-16T10:04:54;18.40;75.40
39045;DHT22;52192;52.002;5.956;2022-10-16T10:07:25;18.60;75.30
39045;DHT22;52192;52.002;5.956;2022-10-16T10:09:52;18.70;74.90
39045;DHT22;52192;52.002;5.956;2022-10-16T10:12:26;18.80;74.80
39045;DHT22;52192;52.002;5.956;2022-10-16T10:14:55;18.90;74.30
39045;DHT22;52192;52.002;5.956;2022-10-16T10:17:23;19.00;74.10
39045;DHT22;52192;52.002;5.956;2022-10-16T10:19:55;19.10;73.90
39045;DHT22;52192;52.002;5.956;2022-10-16T10:33:26;19.60;70.60
39045;DHT22;52192;52.002;5.956;2022-10-16T10:36:54;19.50;70.90
39045;DHT22;52192;52.002;5.956;2022-10-16T10:39:20;19.40;71.80
39045;DHT22;52192;52.002;5.956;2022-10-16T10:55:40;20.40;68.70
39045;DHT22;52192;52.002;5.956;2022-10-16T10:58:29;20.60;67.80
39045;DHT22;52192;52.002;5.956;2022-10-16T11:07:07;20.30;65.80
39045;DHT22;52192;52.002;5.956;2022-10-16T11:09:52;20.40;65.40
39045;DHT22;52192;52.002;5.956;2022-10-16T11:17:21;19.90;65.20
39045;DHT22;52192;52.002;5.956;2022-10-16T11:20:05;20.20;65.90
39045;DHT22;52192;52.002;5.956;2022-10-16T11:22:39;20.50;65.00
39045;DHT22;52192;52.002;5.956;2022-10-16T11:25:13;20.90;65.10
39045;DHT22;52192;52.002;5.956;2022-10-16T11:30:29;21.30;63.90
39045;DHT22;52192;52.002;5.956;2022-10-16T11:35:41;21.20;62.50
39045;DHT22;52192;52.002;5.956;2022-10-16T11:38:35;21.10;61.20
39045;DHT22;52192;52.002;5.956;2022-10-16T11:41:49;20.90;61.20
39045;DHT22;52192;52.002;5.956;2022-10-16T11:46:40;20.60;61.50
39045;DHT22;52192;52.002;5.956;2022-10-16T11:49:16;20.70;61.50
39045;DHT22;52192;52.002;5.956;2022-10-16T11:51:51;21.00;60.40
39045;DHT22;52192;52.002;5.956;2022-10-16T11:57:13;20.80;59.10
39045;DHT22;52192;52.002;5.956;2022-10-16T12:05:33;21.40;60.60
39045;DHT22;52192;52.002;5.956;2022-10-16T12:08:10;21.70;58.60
39045;DHT22;52192;52.002;5.956;2022-10-16T12:10:37;21.80;58.60
39045;DHT22;52192;52.002;5.956;2022-10-16T12:13:39;21.90;57.50
39045;DHT22;52192;52.002;5.956;2022-10-16T12:18:38;21.50;57.20
39045;DHT22;52192;52.002;5.956;2022-10-16T12:21:05;21.30;57.70
39045;DHT22;52192;52.002;5.956;2022-10-16T12:23:36;21.10;58.50
39045;DHT22;52192;52.002;5.956;2022-10-16T12:26:02;20.90;58.60
39045;DHT22;52192;52.002;5.956;2022-10-16T12:28:31;20.70;59.00
39045;DHT22;52192;52.002;5.956;2022-10-16T12:31:01;20.80;58.00
39045;DHT22;52192;52.002;5.956;2022-10-16T12:33:34;20.90;58.20
39045;DHT22;52192;52.002;5.956;2022-10-16T12:36:03;21.10;58.00
39045;DHT22;52192;52.002;5.956;2022-10-16T12:38:36;21.40;58.00
39045;DHT22;52192;52.002;5.956;2022-10-16T12:41:08;22.10;57.20
39045;DHT22;52192;52.002;5.956;2022-10-16T12:43:45;23.20;56.20
39045;DHT22;52192;52.002;5.956;2022-10-16T12:48:43;24.00;52.60
39045;DHT22;52192;52.002;5.956;2022-10-16T12:54:03;23.40;52.10
39045;DHT22;52192;52.002;5.956;2022-10-16T13:10:41;21.70;54.90
39045;DHT22;52192;52.002;5.956;2022-10-16T13:23:40;25.50;50.00
39045;DHT22;52192;52.002;5.956;2022-10-16T13:28:37;25.50;47.30
39045;DHT22;52192;52.002;5.956;2022-10-16T13:31:04;25.10;48.40
39045;DHT22;52192;52.002;5.956;2022-10-16T13:33:36;25.40;48.20
39045;DHT22;52192;52.002;5.956;2022-10-16T13:36:04;26.50;47.70
39045;DHT22;52192;52.002;5.956;2022-10-16T13:38:32;27.80;46.00
39045;DHT22;52192;52.002;5.956;2022-10-16T13:41:11;28.60;44.50
39045;DHT22;52192;52.002;5.956;2022-10-16T13:43:44;29.10;42.80
39045;DHT22;52192;52.002;5.956;2022-10-16T13:46:16;29.60;43.00
39045;DHT22;52192;52.002;5.956;2022-10-16T13:48:42;30.20;42.90
39045;DHT22;52192;52.002;5.956;2022-10-16T13:53:37;30.40;41.40
39045;DHT22;52192;52.002;5.956;2022-10-16T13:56:05;30.60;42.10
39045;DHT22;52192;52.002;5.956;2022-10-16T13:58:32;30.70;41.50
39045;DHT22;52192;52.002;5.956;2022-10-16T14:01:00;30.40;42.20
39045;DHT22;52192;52.002;5.956;2022-10-16T14:03:28;30.50;41.10
39045;DHT22;52192;52.002;5.956;2022-10-16T14:05:57;30.70;40.50
39045;DHT22;52192;52.002;5.956;2022-10-16T14:08:25;30.80;40.10
39045;DHT22;52192;52.002;5.956;2022-10-16T14:11:10;31.00;40.40
39045;DHT22;52192;52.002;5.956;2022-10-16T14:13:46;31.00;39.80
39045;DHT22;52192;52.002;5.956;2022-10-16T14:16:31;30.70;40.00
39045;DHT22;52192;52.002;5.956;2022-10-16T14:19:03;30.40;40.10
39045;DHT22;52192;52.002;5.956;2022-10-16T14:21:32;29.90;39.70
39045;DHT22;52192;52.002;5.956;2022-10-16T14:23:58;29.30;40.70
39045;DHT22;52192;52.002;5.956;2022-10-16T14:26:27;28.80;41.70
39045;DHT22;52192;52.002;5.956;2022-10-16T14:29:12;28.40;42.10
39045;DHT22;52192;52.002;5.956;2022-10-16T14:31:38;28.40;42.90
39045;DHT22;52192;52.002;5.956;2022-10-16T14:34:23;28.30;42.50
39045;DHT22;52192;52.002;5.956;2022-10-16T14:36:50;28.00;43.10
39045;DHT22;52192;52.002;5.956;2022-10-16T14:39:21;27.50;43.30
39045;DHT22;52192;52.002;5.956;2022-10-16T14:41:50;27.10;44.10
39045;DHT22;52192;52.002;5.956;2022-10-16T14:44:25;27.20;45.10
39045;DHT22;52192;52.002;5.956;2022-10-16T14:46:51;27.60;44.90
39045;DHT22;52192;52.002;5.956;2022-10-16T14:49:18;27.90;44.60
39045;DHT22;52192;52.002;5.956;2022-10-16T14:51:46;27.60;45.10
39045;DHT22;52192;52.002;5.956;2022-10-16T14:54:13;27.20;45.70
39045;DHT22;52192;52.002;5.956;2022-10-16T14:56:54;26.50;46.80
39045;DHT22;52192;52.002;5.956;2022-10-16T14:59:41;25.80;48.20
39045;DHT22;52192;52.002;5.956;2022-10-16T15:02:28;24.90;49.60
39045;DHT22;52192;52.002;5.956;2022-10-16T15:04:56;24.30;51.20
39045;DHT22;52192;52.002;5.956;2022-10-16T15:07:22;23.70;52.40
39045;DHT22;52192;52.002;5.956;2022-10-16T15:09:48;23.70;53.10
39045;DHT22;52192;52.002;5.956;2022-10-16T15:12:14;23.80;53.30
39045;DHT22;52192;52.002;5.956;2022-10-16T15:14:39;23.80;53.10
39045;DHT22;52192;52.002;5.956;2022-10-16T15:17:05;23.70;53.30
39045;DHT22;52192;52.002;5.956;2022-10-16T15:19:30;23.50;53.90
39045;DHT22;52192;52.002;5.956;2022-10-16T15:21:56;23.30;54.40
39045;DHT22;52192;52.002;5.956;2022-10-16T15:24:22;23.00;55.10
39045;DHT22;52192;52.002;5.956;2022-10-16T15:26:48;22.70;55.90
39045;DHT22;52192;52.002;5.956;2022-10-16T15:29:15;22.40;56.40
39045;DHT22;52192;52.002;5.956;2022-10-16T15:31:41;22.20;57.20
39045;DHT22;52192;52.002;5.956;2022-10-16T15:34:10;21.90;57.80
39045;DHT22;52192;52.002;5.956;2022-10-16T15:36:37;21.70;58.40
39045;DHT22;52192;52.002;5.956;2022-10-16T15:39:04;21.50;58.90
39045;DHT22;52192;52.002;5.956;2022-10-16T15:41:29;21.30;59.90
39045;DHT22;52192;52.002;5.956;2022-10-16T15:43:55;21.20;59.70
39045;DHT22;52192;52.002;5.956;2022-10-16T15:46:22;21.10;60.20
39045;DHT22;52192;52.002;5.956;2022-10-16T15:48:50;20.90;60.50
39045;DHT22;52192;52.002;5.956;2022-10-16T15:51:17;20.80;60.90
39045;DHT22;52192;52.002;5.956;2022-10-16T15:53:43;20.70;61.30
39045;DHT22;52192;52.002;5.956;2022-10-16T15:56:10;20.70;61.70
39045;DHT22;52192;52.002;5.956;2022-10-16T15:58:36;20.60;62.00
39045;DHT22;52192;52.002;5.956;2022-10-16T16:01:03;20.60;63.00
39045;DHT22;52192;52.002;5.956;2022-10-16T16:03:30;20.50;62.70
39045;DHT22;52192;52.002;5.956;2022-10-16T16:05:56;20.40;63.00
39045;DHT22;52192;52.002;5.956;2022-10-16T16:08:22;20.30;63.20
39045;DHT22;52192;52.002;5.956;2022-10-16T16:11:01;20.20;63.40
39045;DHT22;52192;52.002;5.956;2022-10-16T16:13:28;20.20;63.70
39045;DHT22;52192;52.002;5.956;2022-10-16T16:15:54;20.10;64.70
39045;DHT22;52192;52.002;5.956;2022-10-16T16:18:19;20.10;64.40
39045;DHT22;52192;52.002;5.956;2022-10-16T16:20:45;20.00;64.60
39045;DHT22;52192;52.002;5.956;2022-10-16T16:23:11;19.90;64.80
39045;DHT22;52192;52.002;5.956;2022-10-16T16:25:36;19.90;65.10
39045;DHT22;52192;52.002;5.956;2022-10-16T16:28:02;19.80;65.30
39045;DHT22;52192;52.002;5.956;2022-10-16T16:30:27;19.80;65.60
39045;DHT22;52192;52.002;5.956;2022-10-16T16:32:53;19.70;65.90
39045;DHT22;52192;52.002;5.956;2022-10-16T16:35:19;19.70;66.10
39045;DHT22;52192;52.002;5.956;2022-10-16T16:37:46;19.70;66.40
39045;DHT22;52192;52.002;5.956;2022-10-16T16:40:12;19.60;66.60
39045;DHT22;52192;52.002;5.956;2022-10-16T16:42:37;19.60;66.80
39045;DHT22;52192;52.002;5.956;2022-10-16T16:45:03;19.50;66.90
39045;DHT22;52192;52.002;5.956;2022-10-16T16:47:29;19.50;67.20
39045;DHT22;52192;52.002;5.956;2022-10-16T16:49:54;19.40;67.50
39045;DHT22;52192;52.002;5.956;2022-10-16T16:52:20;19.30;67.60
39045;DHT22;52192;52.002;5.956;2022-10-16T16:54:47;19.30;67.70
39045;DHT22;52192;52.002;5.956;2022-10-16T16:57:18;19.30;67.80
39045;DHT22;52192;52.002;5.956;2022-10-16T16:59:44;19.20;68.10
39045;DHT22;52192;52.002;5.956;2022-10-16T17:02:10;19.20;68.20
39045;DHT22;52192;52.002;5.956;2022-10-16T17:04:36;19.10;68.30
39045;DHT22;52192;52.002;5.956;2022-10-16T17:07:01;19.10;68.40
39045;DHT22;52192;52.002;5.956;2022-10-16T17:09:27;19.00;68.60
39045;DHT22;52192;52.002;5.956;2022-10-16T17:11:53;19.00;68.80
39045;DHT22;52192;52.002;5.956;2022-10-16T17:14:18;18.90;68.90
39045;DHT22;52192;52.002;5.956;2022-10-16T17:16:44;18.90;68.90
39045;DHT22;52192;52.002;5.956;2022-10-16T17:19:12;18.90;69.10
39045;DHT22;52192;52.002;5.956;2022-10-16T17:21:39;18.80;69.10
39045;DHT22;52192;52.002;5.956;2022-10-16T17:24:05;18.70;69.20
39045;DHT22;52192;52.002;5.956;2022-10-16T17:26:32;18.70;69.40
39045;DHT22;52192;52.002;5.956;2022-10-16T17:29:03;18.70;69.50